sensor_id;sensor_type;location;lat;lon;timestamp;P1;durP1;ratioP1;P2;durP2;ratioP2
81374;SDS011;70828;51.158;4.998;2023-07-09T00:01:32;13.98;;;7.20;;
81374;SDS011;70828;51.158;4.998;2023-07-09T00:03:58;9.60;;;6.70;;
81374;SDS011;70828;51.158;4.998;2023-07-09T00:06:25;10.73;;;6.82;;
81374;SDS011;70828;51.158;4.998;2023-07-09T00:08:51;14.90;;;7.15;;
81374;SDS011;70828;51.158;4.998;2023-07-09T00:11:19;9.75;;;7.05;;
81374;SDS011;70828;51.158;4.998;2023-07-09T00:13:46;12.68;;;7.00;;
81374;SDS011;70828;51.158;4.998;2023-07-09T00:16:13;11.05;;;6.60;;
81374;SDS011;70828;51.158;4.998;2023-07-09T00:18:41;15.93;;;7.18;;
81374;SDS011;70828;51.158;4.998;2023-07-09T00:21:08;14.45;;;7.45;;
81374;SDS011;70828;51.158;4.998;2023-07-09T00:23:35;12.95;;;6.78;;
81374;SDS011;70828;51.158;4.998;2023-07-09T00:26:04;14.38;;;6.90;;
81374;SDS011;70828;51.158;4.998;2023-07-09T00:28:36;12.98;;;7.70;;
81374;SDS011;70828;51.158;4.998;2023-07-09T00:31:02;14.57;;;6.80;;
81374;SDS011;70828;51.158;4.998;2023-07-09T00:33:29;12.73;;;7.22;;
81374;SDS011;70828;51.158;4.998;2023-07-09T00:35:56;10.93;;;7.35;;
81374;SDS011;70828;51.158;4.998;2023-07-09T00:38:23;10.93;;;7.80;;
81374;SDS011;70828;51.158;4.998;2023-07-09T00:40:58;15.68;;;7.22;;
81374;SDS011;70828;51.158;4.998;2023-07-09T00:43:29;14.25;;;7.78;;
81374;SDS011;70828;51.158;4.998;2023-07-09T00:46:14;14.68;;;8.13;;
81374;SDS011;70828;51.158;4.998;2023-07-09T00:48:43;21.40;;;8.77;;
81374;SDS011;70828;51.158;4.998;2023-07-09T00:51:10;13.48;;;6.88;;
81374;SDS011;70828;51.158;4.998;2023-07-09T00:56:11;11.35;;;6.80;;
81374;SDS011;70828;51.158;4.998;2023-07-09T00:58:40;13.35;;;7.57;;
81374;SDS011;70828;51.158;4.998;2023-07-09T01:01:09;12.80;;;8.18;;
81374;SDS011;70828;51.158;4.998;2023-07-09T01:03:42;13.75;;;8.10;;
81374;SDS011;70828;51.158;4.998;2023-07-09T01:06:10;14.90;;;7.53;;
81374;SDS011;70828;51.158;4.998;2023-07-09T01:08:39;11.52;;;7.43;;
81374;SDS011;70828;51.158;4.998;2023-07-09T01:11:13;12.30;;;7.65;;
81374;SDS011;70828;51.158;4.998;2023-07-09T01:13:46;15.02;;;7.40;;
81374;SDS011;70828;51.158;4.998;2023-07-09T01:16:14;13.68;;;7.50;;
81374;SDS011;70828;51.158;4.998;2023-07-09T01:18:42;12.95;;;7.35;;
81374;SDS011;70828;51.158;4.998;2023-07-09T01:21:10;12.40;;;8.13;;
81374;SDS011;70828;51.158;4.998;2023-07-09T01:23:40;11.13;;;7.43;;
81374;SDS011;70828;51.158;4.998;2023-07-09T01:26:09;12.93;;;8.05;;
81374;SDS011;70828;51.158;4.998;2023-07-09T01:28:36;12.63;;;7.25;;
81374;SDS011;70828;51.158;4.998;2023-07-09T01:31:03;11.30;;;7.68;;
81374;SDS011;70828;51.158;4.998;2023-07-09T01:33:30;10.30;;;6.95;;
81374;SDS011;70828;51.158;4.998;2023-07-09T01:35:56;13.85;;;7.60;;
81374;SDS011;70828;51.158;4.998;2023-07-09T01:38:26;13.55;;;7.75;;
81374;SDS011;70828;51.158;4.998;2023-07-09T01:40:55;11.30;;;7.40;;
81374;SDS011;70828;51.158;4.998;2023-07-09T01:43:22;14.38;;;7.47;;
81374;SDS011;70828;51.158;4.998;2023-07-09T01:45:50;11.48;;;7.35;;
81374;SDS011;70828;51.158;4.998;2023-07-09T01:48:17;11.82;;;6.88;;
81374;SDS011;70828;51.158;4.998;2023-07-09T01:50:45;11.60;;;7.00;;
81374;SDS011;70828;51.158;4.998;2023-07-09T01:55:42;11.43;;;7.18;;
81374;SDS011;70828;51.158;4.998;2023-07-09T01:58:09;15.07;;;7.80;;
81374;SDS011;70828;51.158;4.998;2023-07-09T02:00:36;10.48;;;7.15;;
81374;SDS011;70828;51.158;4.998;2023-07-09T02:03:03;10.48;;;6.70;;
81374;SDS011;70828;51.158;4.998;2023-07-09T02:05:30;13.07;;;7.47;;
81374;SDS011;70828;51.158;4.998;2023-07-09T02:07:58;12.65;;;7.22;;
81374;SDS011;70828;51.158;4.998;2023-07-09T02:10:25;13.55;;;7.43;;
81374;SDS011;70828;51.158;4.998;2023-07-09T02:12:53;12.23;;;7.25;;
81374;SDS011;70828;51.158;4.998;2023-07-09T02:15:20;11.70;;;7.07;;
81374;SDS011;70828;51.158;4.998;2023-07-09T02:17:47;11.40;;;7.30;;
81374;SDS011;70828;51.158;4.998;2023-07-09T02:20:14;11.18;;;6.95;;
81374;SDS011;70828;51.158;4.998;2023-07-09T02:22:40;13.88;;;7.25;;
81374;SDS011;70828;51.158;4.998;2023-07-09T02:25:07;11.60;;;7.03;;
81374;SDS011;70828;51.158;4.998;2023-07-09T02:27:35;10.95;;;6.78;;
81374;SDS011;70828;51.158;4.998;2023-07-09T02:30:04;15.98;;;7.40;;
81374;SDS011;70828;51.158;4.998;2023-07-09T02:32:32;11.73;;;6.88;;
81374;SDS011;70828;51.158;4.998;2023-07-09T02:34:58;10.55;;;6.55;;
81374;SDS011;70828;51.158;4.998;2023-07-09T02:37:25;10.90;;;6.78;;
81374;SDS011;70828;51.158;4.998;2023-07-09T02:39:52;14.68;;;6.85;;
81374;SDS011;70828;51.158;4.998;2023-07-09T02:42:19;8.23;;;6.20;;
81374;SDS011;70828;51.158;4.998;2023-07-09T02:44:47;12.95;;;7.13;;
81374;SDS011;70828;51.158;4.998;2023-07-09T02:47:15;9.48;;;6.70;;
81374;SDS011;70828;51.158;4.998;2023-07-09T02:49:42;9.55;;;6.80;;
81374;SDS011;70828;51.158;4.998;2023-07-09T02:52:09;10.15;;;6.30;;
81374;SDS011;70828;51.158;4.998;2023-07-09T02:54:35;9.85;;;7.18;;
81374;SDS011;70828;51.158;4.998;2023-07-09T02:57:02;15.07;;;7.60;;
81374;SDS011;70828;51.158;4.998;2023-07-09T02:59:29;14.75;;;6.57;;
81374;SDS011;70828;51.158;4.998;2023-07-09T03:01:56;9.60;;;5.38;;
81374;SDS011;70828;51.158;4.998;2023-07-09T03:04:24;8.65;;;6.43;;
81374;SDS011;70828;51.158;4.998;2023-07-09T03:06:50;10.25;;;6.57;;
81374;SDS011;70828;51.158;4.998;2023-07-09T03:09:17;8.07;;;5.35;;
81374;SDS011;70828;51.158;4.998;2023-07-09T03:11:44;9.15;;;5.72;;
81374;SDS011;70828;51.158;4.998;2023-07-09T03:14:11;9.88;;;6.80;;
81374;SDS011;70828;51.158;4.998;2023-07-09T03:16:38;11.95;;;6.60;;
81374;SDS011;70828;51.158;4.998;2023-07-09T03:19:04;9.20;;;6.07;;
81374;SDS011;70828;51.158;4.998;2023-07-09T03:21:32;11.45;;;6.88;;
81374;SDS011;70828;51.158;4.998;2023-07-09T03:23:59;9.70;;;6.38;;
81374;SDS011;70828;51.158;4.998;2023-07-09T03:26:26;10.70;;;5.72;;
81374;SDS011;70828;51.158;4.998;2023-07-09T03:28:53;9.88;;;5.70;;
81374;SDS011;70828;51.158;4.998;2023-07-09T03:31:20;11.00;;;6.47;;
81374;SDS011;70828;51.158;4.998;2023-07-09T03:33:48;11.90;;;6.20;;
81374;SDS011;70828;51.158;4.998;2023-07-09T03:36:15;9.52;;;6.57;;
81374;SDS011;70828;51.158;4.998;2023-07-09T03:38:43;10.25;;;6.32;;
81374;SDS011;70828;51.158;4.998;2023-07-09T03:41:10;12.18;;;6.68;;
81374;SDS011;70828;51.158;4.998;2023-07-09T03:43:36;9.57;;;6.70;;
81374;SDS011;70828;51.158;4.998;2023-07-09T03:46:03;8.88;;;5.95;;
81374;SDS011;70828;51.158;4.998;2023-07-09T03:48:29;9.35;;;6.32;;
81374;SDS011;70828;51.158;4.998;2023-07-09T03:50:56;10.82;;;6.57;;
81374;SDS011;70828;51.158;4.998;2023-07-09T03:53:23;10.18;;;6.93;;
81374;SDS011;70828;51.158;4.998;2023-07-09T03:55:53;12.13;;;7.20;;
81374;SDS011;70828;51.158;4.998;2023-07-09T03:58:21;10.57;;;6.40;;
81374;SDS011;70828;51.158;4.998;2023-07-09T04:00:47;10.13;;;6.18;;
81374;SDS011;70828;51.158;4.998;2023-07-09T04:03:14;9.05;;;6.45;;
81374;SDS011;70828;51.158;4.998;2023-07-09T04:05:40;12.73;;;5.93;;
81374;SDS011;70828;51.158;4.998;2023-07-09T04:08:07;8.98;;;6.13;;
81374;SDS011;70828;51.158;4.998;2023-07-09T04:10:34;13.48;;;6.15;;
81374;SDS011;70828;51.158;4.998;2023-07-09T04:13:02;8.63;;;5.90;;
81374;SDS011;70828;51.158;4.998;2023-07-09T04:15:28;11.35;;;6.20;;
81374;SDS011;70828;51.158;4.998;2023-07-09T04:17:55;10.30;;;5.72;;
81374;SDS011;70828;51.158;4.998;2023-07-09T04:20:22;9.35;;;5.43;;
81374;SDS011;70828;51.158;4.998;2023-07-09T04:22:49;11.00;;;5.90;;
81374;SDS011;70828;51.158;4.998;2023-07-09T04:25:15;14.45;;;5.88;;
81374;SDS011;70828;51.158;4.998;2023-07-09T04:27:42;10.63;;;5.30;;
81374;SDS011;70828;51.158;4.998;2023-07-09T04:30:11;9.27;;;5.72;;
81374;SDS011;70828;51.158;4.998;2023-07-09T04:32:39;8.07;;;5.22;;
81374;SDS011;70828;51.158;4.998;2023-07-09T04:35:08;8.00;;;5.05;;
81374;SDS011;70828;51.158;4.998;2023-07-09T04:37:36;9.20;;;5.07;;
81374;SDS011;70828;51.158;4.998;2023-07-09T04:40:04;9.30;;;5.10;;
81374;SDS011;70828;51.158;4.998;2023-07-09T04:42:32;12.32;;;5.95;;
81374;SDS011;70828;51.158;4.998;2023-07-09T04:44:59;10.57;;;5.22;;
81374;SDS011;70828;51.158;4.998;2023-07-09T04:47:27;11.25;;;5.90;;
81374;SDS011;70828;51.158;4.998;2023-07-09T04:49:53;8.95;;;5.43;;
81374;SDS011;70828;51.158;4.998;2023-07-09T04:52:20;12.38;;;5.13;;
81374;SDS011;70828;51.158;4.998;2023-07-09T04:54:47;11.68;;;5.53;;
81374;SDS011;70828;51.158;4.998;2023-07-09T04:57:15;10.43;;;4.93;;
81374;SDS011;70828;51.158;4.998;2023-07-09T04:59:42;10.75;;;5.55;;
81374;SDS011;70828;51.158;4.998;2023-07-09T05:02:09;12.23;;;5.07;;
81374;SDS011;70828;51.158;4.998;2023-07-09T05:04:36;8.07;;;5.00;;
81374;SDS011;70828;51.158;4.998;2023-07-09T05:07:03;7.43;;;4.47;;
81374;SDS011;70828;51.158;4.998;2023-07-09T05:09:30;7.60;;;4.78;;
81374;SDS011;70828;51.158;4.998;2023-07-09T05:11:57;7.05;;;5.13;;
81374;SDS011;70828;51.158;4.998;2023-07-09T05:14:25;10.70;;;5.78;;
81374;SDS011;70828;51.158;4.998;2023-07-09T05:16:52;8.48;;;5.32;;
81374;SDS011;70828;51.158;4.998;2023-07-09T05:19:19;9.48;;;6.18;;
81374;SDS011;70828;51.158;4.998;2023-07-09T05:21:47;11.48;;;6.38;;
81374;SDS011;70828;51.158;4.998;2023-07-09T05:24:13;9.07;;;5.80;;
81374;SDS011;70828;51.158;4.998;2023-07-09T05:26:40;8.27;;;5.22;;
81374;SDS011;70828;51.158;4.998;2023-07-09T05:29:07;10.63;;;4.85;;
81374;SDS011;70828;51.158;4.998;2023-07-09T05:31:33;8.32;;;4.93;;
81374;SDS011;70828;51.158;4.998;2023-07-09T05:34:01;10.10;;;5.03;;
81374;SDS011;70828;51.158;4.998;2023-07-09T05:36:28;8.25;;;5.20;;
81374;SDS011;70828;51.158;4.998;2023-07-09T05:38:57;9.77;;;5.63;;
81374;SDS011;70828;51.158;4.998;2023-07-09T05:41:23;11.88;;;5.22;;
81374;SDS011;70828;51.158;4.998;2023-07-09T05:43:50;9.20;;;5.32;;
81374;SDS011;70828;51.158;4.998;2023-07-09T05:46:18;10.68;;;4.50;;
81374;SDS011;70828;51.158;4.998;2023-07-09T05:48:45;8.35;;;4.80;;
81374;SDS011;70828;51.158;4.998;2023-07-09T05:51:11;7.18;;;4.45;;
81374;SDS011;70828;51.158;4.998;2023-07-09T05:53:38;7.80;;;4.15;;
81374;SDS011;70828;51.158;4.998;2023-07-09T05:56:06;9.02;;;4.43;;
81374;SDS011;70828;51.158;4.998;2023-07-09T05:58:33;9.73;;;4.43;;
81374;SDS011;70828;51.158;4.998;2023-07-09T06:01:00;10.73;;;4.53;;
81374;SDS011;70828;51.158;4.998;2023-07-09T06:03:28;9.35;;;4.13;;
81374;SDS011;70828;51.158;4.998;2023-07-09T06:05:55;9.52;;;4.32;;
81374;SDS011;70828;51.158;4.998;2023-07-09T06:08:22;8.50;;;4.80;;
81374;SDS011;70828;51.158;4.998;2023-07-09T06:10:55;8.15;;;4.22;;
81374;SDS011;70828;51.158;4.998;2023-07-09T06:13:24;10.23;;;4.35;;
81374;SDS011;70828;51.158;4.998;2023-07-09T06:15:52;9.77;;;4.85;;
81374;SDS011;70828;51.158;4.998;2023-07-09T06:18:20;8.65;;;4.72;;
81374;SDS011;70828;51.158;4.998;2023-07-09T06:20:47;8.35;;;4.57;;
81374;SDS011;70828;51.158;4.998;2023-07-09T06:23:15;9.07;;;4.82;;
81374;SDS011;70828;51.158;4.998;2023-07-09T06:25:42;11.15;;;4.38;;
81374;SDS011;70828;51.158;4.998;2023-07-09T06:28:12;7.05;;;4.90;;
81374;SDS011;70828;51.158;4.998;2023-07-09T06:30:40;9.95;;;5.25;;
81374;SDS011;70828;51.158;4.998;2023-07-09T06:33:07;7.45;;;4.28;;
81374;SDS011;70828;51.158;4.998;2023-07-09T06:35:34;8.13;;;4.65;;
81374;SDS011;70828;51.158;4.998;2023-07-09T06:38:01;6.50;;;4.28;;
81374;SDS011;70828;51.158;4.998;2023-07-09T06:40:27;10.23;;;4.63;;
81374;SDS011;70828;51.158;4.998;2023-07-09T06:42:54;7.70;;;4.13;;
81374;SDS011;70828;51.158;4.998;2023-07-09T06:45:21;7.45;;;4.40;;
81374;SDS011;70828;51.158;4.998;2023-07-09T06:47:49;8.35;;;4.57;;
81374;SDS011;70828;51.158;4.998;2023-07-09T06:50:15;8.02;;;3.95;;
81374;SDS011;70828;51.158;4.998;2023-07-09T06:52:42;10.38;;;4.70;;
81374;SDS011;70828;51.158;4.998;2023-07-09T06:55:09;9.80;;;4.60;;
81374;SDS011;70828;51.158;4.998;2023-07-09T06:57:36;7.38;;;4.45;;
81374;SDS011;70828;51.158;4.998;2023-07-09T07:00:03;9.55;;;4.50;;
81374;SDS011;70828;51.158;4.998;2023-07-09T07:02:32;7.20;;;4.40;;
81374;SDS011;70828;51.158;4.998;2023-07-09T07:05:00;8.60;;;4.22;;
81374;SDS011;70828;51.158;4.998;2023-07-09T07:07:26;10.82;;;4.05;;
81374;SDS011;70828;51.158;4.998;2023-07-09T07:09:53;8.88;;;4.35;;
81374;SDS011;70828;51.158;4.998;2023-07-09T07:12:22;10.35;;;4.25;;
81374;SDS011;70828;51.158;4.998;2023-07-09T07:14:50;10.85;;;4.05;;
81374;SDS011;70828;51.158;4.998;2023-07-09T07:17:17;6.47;;;3.80;;
81374;SDS011;70828;51.158;4.998;2023-07-09T07:19:43;5.65;;;4.20;;
81374;SDS011;70828;51.158;4.998;2023-07-09T07:22:11;9.52;;;4.15;;
81374;SDS011;70828;51.158;4.998;2023-07-09T07:24:38;6.80;;;4.30;;
81374;SDS011;70828;51.158;4.998;2023-07-09T07:27:05;7.60;;;3.80;;
81374;SDS011;70828;51.158;4.998;2023-07-09T07:29:31;6.53;;;4.00;;
81374;SDS011;70828;51.158;4.998;2023-07-09T07:31:58;5.55;;;3.35;;
81374;SDS011;70828;51.158;4.998;2023-07-09T07:34:25;10.23;;;3.60;;
81374;SDS011;70828;51.158;4.998;2023-07-09T07:36:52;7.72;;;3.60;;
81374;SDS011;70828;51.158;4.998;2023-07-09T07:39:20;4.85;;;4.00;;
81374;SDS011;70828;51.158;4.998;2023-07-09T07:41:47;5.55;;;3.92;;
81374;SDS011;70828;51.158;4.998;2023-07-09T07:44:16;7.38;;;3.80;;
81374;SDS011;70828;51.158;4.998;2023-07-09T07:46:42;11.18;;;4.07;;
81374;SDS011;70828;51.158;4.998;2023-07-09T07:49:10;5.28;;;3.53;;
81374;SDS011;70828;51.158;4.998;2023-07-09T07:51:36;7.57;;;3.90;;
81374;SDS011;70828;51.158;4.998;2023-07-09T07:54:03;7.03;;;3.42;;
81374;SDS011;70828;51.158;4.998;2023-07-09T07:56:31;5.88;;;3.60;;
81374;SDS011;70828;51.158;4.998;2023-07-09T07:58:58;6.85;;;3.72;;
81374;SDS011;70828;51.158;4.998;2023-07-09T08:01:24;7.20;;;3.50;;
81374;SDS011;70828;51.158;4.998;2023-07-09T08:03:51;7.38;;;3.97;;
81374;SDS011;70828;51.158;4.998;2023-07-09T08:06:18;7.70;;;3.53;;
81374;SDS011;70828;51.158;4.998;2023-07-09T08:08:45;5.70;;;3.22;;
81374;SDS011;70828;51.158;4.998;2023-07-09T08:11:11;7.40;;;3.80;;
81374;SDS011;70828;51.158;4.998;2023-07-09T08:13:39;4.78;;;3.38;;
81374;SDS011;70828;51.158;4.998;2023-07-09T08:16:06;5.13;;;3.58;;
81374;SDS011;70828;51.158;4.998;2023-07-09T08:18:33;6.28;;;3.75;;
81374;SDS011;70828;51.158;4.998;2023-07-09T08:21:00;6.85;;;3.95;;
81374;SDS011;70828;51.158;4.998;2023-07-09T08:23:27;6.57;;;4.10;;
81374;SDS011;70828;51.158;4.998;2023-07-09T08:25:53;9.13;;;4.65;;
81374;SDS011;70828;51.158;4.998;2023-07-09T08:28:20;6.72;;;4.20;;
81374;SDS011;70828;51.158;4.998;2023-07-09T08:30:48;11.38;;;4.15;;
81374;SDS011;70828;51.158;4.998;2023-07-09T08:33:17;15.95;;;4.07;;
81374;SDS011;70828;51.158;4.998;2023-07-09T08:35:44;8.93;;;4.38;;
81374;SDS011;70828;51.158;4.998;2023-07-09T08:38:11;8.82;;;4.20;;
81374;SDS011;70828;51.158;4.998;2023-07-09T08:40:38;7.05;;;4.53;;
81374;SDS011;70828;51.158;4.998;2023-07-09T08:43:06;7.05;;;3.97;;
81374;SDS011;70828;51.158;4.998;2023-07-09T08:45:40;7.38;;;4.82;;
81374;SDS011;70828;51.158;4.998;2023-07-09T08:48:15;6.85;;;4.32;;
81374;SDS011;70828;51.158;4.998;2023-07-09T08:50:47;7.32;;;3.97;;
81374;SDS011;70828;51.158;4.998;2023-07-09T08:53:18;7.88;;;4.60;;
81374;SDS011;70828;51.158;4.998;2023-07-09T08:55:47;7.93;;;4.25;;
81374;SDS011;70828;51.158;4.998;2023-07-09T09:00:45;6.63;;;4.40;;
81374;SDS011;70828;51.158;4.998;2023-07-09T09:03:21;5.90;;;3.60;;
81374;SDS011;70828;51.158;4.998;2023-07-09T09:05:54;8.63;;;4.38;;
81374;SDS011;70828;51.158;4.998;2023-07-09T09:08:25;6.07;;;4.75;;
81374;SDS011;70828;51.158;4.998;2023-07-09T09:11:00;9.50;;;4.10;;
81374;SDS011;70828;51.158;4.998;2023-07-09T09:13:34;8.07;;;4.50;;
81374;SDS011;70828;51.158;4.998;2023-07-09T09:16:04;6.47;;;4.05;;
81374;SDS011;70828;51.158;4.998;2023-07-09T09:18:37;8.45;;;4.10;;
81374;SDS011;70828;51.158;4.998;2023-07-09T09:21:10;7.70;;;4.13;;
81374;SDS011;70828;51.158;4.998;2023-07-09T09:23:39;7.47;;;4.15;;
81374;SDS011;70828;51.158;4.998;2023-07-09T09:26:14;9.45;;;4.15;;
81374;SDS011;70828;51.158;4.998;2023-07-09T09:28:42;7.25;;;4.32;;
81374;SDS011;70828;51.158;4.998;2023-07-09T09:31:09;8.73;;;4.30;;
81374;SDS011;70828;51.158;4.998;2023-07-09T09:33:40;8.50;;;3.80;;
81374;SDS011;70828;51.158;4.998;2023-07-09T09:36:11;4.85;;;3.75;;
81374;SDS011;70828;51.158;4.998;2023-07-09T09:38:41;6.38;;;3.78;;
81374;SDS011;70828;51.158;4.998;2023-07-09T09:41:12;6.90;;;4.07;;
81374;SDS011;70828;51.158;4.998;2023-07-09T09:43:41;4.65;;;3.17;;
81374;SDS011;70828;51.158;4.998;2023-07-09T09:46:09;21.73;;;4.78;;
81374;SDS011;70828;51.158;4.998;2023-07-09T09:48:36;6.85;;;4.47;;
81374;SDS011;70828;51.158;4.998;2023-07-09T09:51:05;6.65;;;3.72;;
81374;SDS011;70828;51.158;4.998;2023-07-09T09:53:34;7.45;;;4.32;;
81374;SDS011;70828;51.158;4.998;2023-07-09T09:56:04;8.05;;;4.53;;
81374;SDS011;70828;51.158;4.998;2023-07-09T09:58:31;7.75;;;4.07;;
81374;SDS011;70828;51.158;4.998;2023-07-09T10:00:59;6.43;;;4.03;;
81374;SDS011;70828;51.158;4.998;2023-07-09T10:03:32;7.53;;;3.42;;
81374;SDS011;70828;51.158;4.998;2023-07-09T10:06:00;8.85;;;3.80;;
81374;SDS011;70828;51.158;4.998;2023-07-09T10:08:34;8.18;;;4.43;;
81374;SDS011;70828;51.158;4.998;2023-07-09T10:11:10;6.18;;;3.83;;
81374;SDS011;70828;51.158;4.998;2023-07-09T10:13:39;6.63;;;3.90;;
81374;SDS011;70828;51.158;4.998;2023-07-09T10:21:07;12.82;;;4.13;;
81374;SDS011;70828;51.158;4.998;2023-07-09T10:23:38;6.03;;;3.20;;
81374;SDS011;70828;51.158;4.998;2023-07-09T10:26:11;6.95;;;3.65;;
81374;SDS011;70828;51.158;4.998;2023-07-09T10:31:36;11.18;;;4.35;;
81374;SDS011;70828;51.158;4.998;2023-07-09T10:34:13;7.70;;;3.72;;
81374;SDS011;70828;51.158;4.998;2023-07-09T10:36:52;6.10;;;3.85;;
81374;SDS011;70828;51.158;4.998;2023-07-09T10:39:28;9.40;;;3.83;;
81374;SDS011;70828;51.158;4.998;2023-07-09T10:41:59;6.50;;;3.78;;
81374;SDS011;70828;51.158;4.998;2023-07-09T10:44:28;6.63;;;4.13;;
81374;SDS011;70828;51.158;4.998;2023-07-09T10:46:58;6.68;;;4.00;;
81374;SDS011;70828;51.158;4.998;2023-07-09T10:49:30;6.03;;;3.67;;
81374;SDS011;70828;51.158;4.998;2023-07-09T10:52:04;9.80;;;4.25;;
81374;SDS011;70828;51.158;4.998;2023-07-09T10:54:32;5.90;;;3.97;;
81374;SDS011;70828;51.158;4.998;2023-07-09T10:57:02;7.28;;;4.05;;
81374;SDS011;70828;51.158;4.998;2023-07-09T10:59:32;9.10;;;4.68;;
81374;SDS011;70828;51.158;4.998;2023-07-09T11:02:06;8.07;;;4.05;;
81374;SDS011;70828;51.158;4.998;2023-07-09T11:04:42;6.70;;;4.07;;
81374;SDS011;70828;51.158;4.998;2023-07-09T11:07:13;6.07;;;4.32;;
81374;SDS011;70828;51.158;4.998;2023-07-09T11:09:41;13.25;;;5.40;;
81374;SDS011;70828;51.158;4.998;2023-07-09T11:12:11;10.52;;;5.20;;
81374;SDS011;70828;51.158;4.998;2023-07-09T11:14:41;7.78;;;5.00;;
81374;SDS011;70828;51.158;4.998;2023-07-09T11:17:12;8.15;;;4.97;;
81374;SDS011;70828;51.158;4.998;2023-07-09T11:19:41;11.30;;;5.72;;
81374;SDS011;70828;51.158;4.998;2023-07-09T11:22:14;9.63;;;5.43;;
81374;SDS011;70828;51.158;4.998;2023-07-09T11:24:46;10.00;;;6.78;;
81374;SDS011;70828;51.158;4.998;2023-07-09T11:27:16;11.20;;;6.85;;
81374;SDS011;70828;51.158;4.998;2023-07-09T11:29:48;11.90;;;8.23;;
81374;SDS011;70828;51.158;4.998;2023-07-09T11:32:18;15.30;;;10.85;;
81374;SDS011;70828;51.158;4.998;2023-07-09T11:34:45;17.17;;;10.00;;
81374;SDS011;70828;51.158;4.998;2023-07-09T11:37:14;15.18;;;9.85;;
81374;SDS011;70828;51.158;4.998;2023-07-09T11:42:23;14.75;;;9.75;;
81374;SDS011;70828;51.158;4.998;2023-07-09T11:44:51;10.93;;;8.13;;
81374;SDS011;70828;51.158;4.998;2023-07-09T11:47:24;14.77;;;8.95;;
81374;SDS011;70828;51.158;4.998;2023-07-09T11:49:52;14.15;;;7.72;;
81374;SDS011;70828;51.158;4.998;2023-07-09T11:52:22;16.30;;;9.00;;
81374;SDS011;70828;51.158;4.998;2023-07-09T11:54:52;15.05;;;8.68;;
81374;SDS011;70828;51.158;4.998;2023-07-09T11:57:19;15.32;;;9.32;;
81374;SDS011;70828;51.158;4.998;2023-07-09T11:59:46;14.25;;;8.80;;
81374;SDS011;70828;51.158;4.998;2023-07-09T12:02:14;18.20;;;10.23;;
81374;SDS011;70828;51.158;4.998;2023-07-09T12:04:42;18.73;;;10.15;;
81374;SDS011;70828;51.158;4.998;2023-07-09T12:07:10;19.13;;;9.98;;
81374;SDS011;70828;51.158;4.998;2023-07-09T12:09:41;17.73;;;10.52;;
81374;SDS011;70828;51.158;4.998;2023-07-09T12:12:16;15.38;;;10.43;;
81374;SDS011;70828;51.158;4.998;2023-07-09T12:14:44;13.38;;;8.90;;
81374;SDS011;70828;51.158;4.998;2023-07-09T12:17:11;14.55;;;9.52;;
81374;SDS011;70828;51.158;4.998;2023-07-09T12:19:37;12.55;;;8.55;;
81374;SDS011;70828;51.158;4.998;2023-07-09T12:22:06;13.40;;;8.35;;
81374;SDS011;70828;51.158;4.998;2023-07-09T12:24:36;13.10;;;8.85;;
81374;SDS011;70828;51.158;4.998;2023-07-09T12:27:16;14.20;;;9.23;;
81374;SDS011;70828;51.158;4.998;2023-07-09T12:29:45;18.20;;;9.63;;
81374;SDS011;70828;51.158;4.998;2023-07-09T12:32:13;16.75;;;9.60;;
81374;SDS011;70828;51.158;4.998;2023-07-09T12:34:40;14.60;;;9.20;;
81374;SDS011;70828;51.158;4.998;2023-07-09T12:37:07;12.10;;;7.60;;
81374;SDS011;70828;51.158;4.998;2023-07-09T12:39:38;13.13;;;7.25;;
81374;SDS011;70828;51.158;4.998;2023-07-09T12:42:04;9.65;;;7.13;;
81374;SDS011;70828;51.158;4.998;2023-07-09T12:44:33;10.32;;;6.20;;
81374;SDS011;70828;51.158;4.998;2023-07-09T12:47:02;11.02;;;6.70;;
81374;SDS011;70828;51.158;4.998;2023-07-09T12:49:30;13.32;;;6.47;;
81374;SDS011;70828;51.158;4.998;2023-07-09T12:52:03;12.48;;;6.03;;
81374;SDS011;70828;51.158;4.998;2023-07-09T12:54:35;10.35;;;6.10;;
81374;SDS011;70828;51.158;4.998;2023-07-09T12:57:03;7.30;;;5.25;;
81374;SDS011;70828;51.158;4.998;2023-07-09T12:59:41;11.95;;;5.88;;
81374;SDS011;70828;51.158;4.998;2023-07-09T13:02:12;9.65;;;5.68;;
81374;SDS011;70828;51.158;4.998;2023-07-09T13:04:41;13.00;;;6.32;;
81374;SDS011;70828;51.158;4.998;2023-07-09T13:10:30;24.95;;;9.55;;
81374;SDS011;70828;51.158;4.998;2023-07-09T13:13:00;18.77;;;8.43;;
81374;SDS011;70828;51.158;4.998;2023-07-09T13:15:30;18.67;;;11.40;;
81374;SDS011;70828;51.158;4.998;2023-07-09T13:17:58;14.13;;;8.90;;
81374;SDS011;70828;51.158;4.998;2023-07-09T13:20:27;26.13;;;8.32;;
81374;SDS011;70828;51.158;4.998;2023-07-09T13:22:54;13.70;;;7.78;;
81374;SDS011;70828;51.158;4.998;2023-07-09T13:25:21;15.45;;;8.38;;
81374;SDS011;70828;51.158;4.998;2023-07-09T13:27:48;12.25;;;6.88;;
81374;SDS011;70828;51.158;4.998;2023-07-09T13:30:15;12.70;;;7.70;;
81374;SDS011;70828;51.158;4.998;2023-07-09T13:32:43;11.93;;;7.15;;
81374;SDS011;70828;51.158;4.998;2023-07-09T13:35:13;15.23;;;7.30;;
81374;SDS011;70828;51.158;4.998;2023-07-09T13:37:41;10.80;;;6.95;;
81374;SDS011;70828;51.158;4.998;2023-07-09T13:40:08;11.68;;;6.47;;
81374;SDS011;70828;51.158;4.998;2023-07-09T13:42:36;10.18;;;7.88;;
81374;SDS011;70828;51.158;4.998;2023-07-09T13:45:08;10.40;;;6.90;;
81374;SDS011;70828;51.158;4.998;2023-07-09T13:47:43;15.95;;;8.50;;
81374;SDS011;70828;51.158;4.998;2023-07-09T13:50:10;18.80;;;10.68;;
81374;SDS011;70828;51.158;4.998;2023-07-09T13:52:36;15.93;;;9.23;;
81374;SDS011;70828;51.158;4.998;2023-07-09T13:55:04;14.10;;;8.15;;
81374;SDS011;70828;51.158;4.998;2023-07-09T13:57:31;16.73;;;10.77;;
81374;SDS011;70828;51.158;4.998;2023-07-09T13:59:57;11.10;;;7.47;;
81374;SDS011;70828;51.158;4.998;2023-07-09T14:02:25;16.50;;;8.73;;
81374;SDS011;70828;51.158;4.998;2023-07-09T14:04:58;11.93;;;8.13;;
81374;SDS011;70828;51.158;4.998;2023-07-09T14:07:26;15.10;;;8.25;;
81374;SDS011;70828;51.158;4.998;2023-07-09T14:09:55;10.15;;;7.75;;
81374;SDS011;70828;51.158;4.998;2023-07-09T14:12:21;13.88;;;8.00;;
81374;SDS011;70828;51.158;4.998;2023-07-09T14:14:49;11.75;;;7.80;;
81374;SDS011;70828;51.158;4.998;2023-07-09T14:17:17;14.52;;;7.43;;
81374;SDS011;70828;51.158;4.998;2023-07-09T14:19:43;11.40;;;7.20;;
81374;SDS011;70828;51.158;4.998;2023-07-09T14:22:18;12.40;;;7.13;;
81374;SDS011;70828;51.158;4.998;2023-07-09T14:24:48;13.40;;;6.22;;
81374;SDS011;70828;51.158;4.998;2023-07-09T14:27:14;13.73;;;7.85;;
81374;SDS011;70828;51.158;4.998;2023-07-09T14:29:41;12.25;;;7.43;;
81374;SDS011;70828;51.158;4.998;2023-07-09T14:32:09;11.05;;;6.45;;
81374;SDS011;70828;51.158;4.998;2023-07-09T14:34:52;9.63;;;5.88;;
81374;SDS011;70828;51.158;4.998;2023-07-09T14:37:20;11.55;;;7.57;;
81374;SDS011;70828;51.158;4.998;2023-07-09T14:39:47;9.18;;;6.13;;
81374;SDS011;70828;51.158;4.998;2023-07-09T14:42:13;10.35;;;6.43;;
81374;SDS011;70828;51.158;4.998;2023-07-09T14:44:41;11.20;;;6.50;;
81374;SDS011;70828;51.158;4.998;2023-07-09T14:47:10;12.25;;;6.78;;
81374;SDS011;70828;51.158;4.998;2023-07-09T14:49:39;8.30;;;5.82;;
81374;SDS011;70828;51.158;4.998;2023-07-09T14:52:08;7.95;;;5.43;;
81374;SDS011;70828;51.158;4.998;2023-07-09T14:54:38;8.85;;;5.70;;
81374;SDS011;70828;51.158;4.998;2023-07-09T14:57:07;9.18;;;5.30;;
81374;SDS011;70828;51.158;4.998;2023-07-09T14:59:37;8.80;;;6.05;;
81374;SDS011;70828;51.158;4.998;2023-07-09T15:02:08;10.82;;;6.40;;
81374;SDS011;70828;51.158;4.998;2023-07-09T15:04:45;9.98;;;6.78;;
81374;SDS011;70828;51.158;4.998;2023-07-09T15:07:12;10.13;;;6.70;;
81374;SDS011;70828;51.158;4.998;2023-07-09T15:09:40;9.52;;;6.35;;